Aeroporto :
LOGIN :

Iscrizione | Disclaimer

   EN    FR    IT 

 










Sommario :    VFR   VFR Marginale   IFR   IFR Intensivo   IFR Molto Intensivo
Visibilità : 
Base nubi : 
>= 8 km
>= 3000ft
5 / 8 km
1000 / 3000 ft
1500m / 5 km
500 / 1000 ft
800 / 1500m
200 / 500 ft
< 800m
< 200 ft
Simboli :   Temporali  Nebbia  Neve Forte  Precipitazioni Forti  Vento > 20 kt
SIGMETs :   Varie  Temporali  Ghiacco  Turbolenza  Onda orograficha  Ceneri Vulcaniche







- Altitudine del aeroporto : 6 ft
- Codice IATA : PSA


LIRP - Galileo Galilei Pisa

ULTIMO METAR :
  • 152015Z 14005KT 0150 R04R/0225 FG BKN001 05/05 Q1029 TEMPO 0100 FG

METARs OBSOLETI :
  • 151945Z 13001KT 0200 R04R/0225 FG BKN001 07/07 Q1029 TEMPO 0100 FG
  • 151915Z VRB01KT 0400 R04R/0750 FG BKN001 08/08 Q1029 TEMPO 0200 FG
  • 151845Z 30003KT CAVOK 08/08 Q1028 NOSIG
  • 151815Z 26003KT CAVOK 08/08 Q1028 NOSIG
  • 151745Z 24002KT CAVOK 10/08 Q1028 NOSIG

TAF AMD TAF LIRP
Valido dal 15 a 19 ore il 16 a 18 ore UTC


151953Z 1519/1618 12004KT 3000 BR NSC
TEMPO 1519/1605 0200 FG BKN001
BECMG 1606/1608 5000 BR
BECMG 1608/1610 CAVOK
Nessun NOTAM noto per questo aeroporto.



MetMap, La meteo Aeronautica in un colpo d'occhio ! - Copyright ORBIFLY Dicembre 2007 - Disclaimer

ORBIFLY MET'MAP TEAM :

Programmazione e sviluppo : Alexandra Zaïnal
Concezione e sviluppo : Baudouin d'Aumeries
Co-Programmazione e sviluppo : Marc-Olivier Méhu
Supporto tecnico e logistico : Manuel Goepfert
Aiuto per la traduzione : Arnaldo La Scala

Contatto : metmap@orbifly.com




FONTI E CREDITI :

   NOAA